Archival Weather

Biggin Hill

Biggin Hill, United Kingdom (EGKB)

Report from: Sunday, September 25, 2022 1:50 PM BST
Current time: Saturday, March 2, 2024 10:54 AM GMT

Current weather – Weather history – Daily summaries
Weather forecast

Temperature15.0°C (59.0°F)
Dew point4.0°C (39.2°F)
Winds 7 kts (3.6 m/s, 8.1 mph) Vrb
Winds variableWinds variable from West-Northwest (300°) to Northeast (40°)
Visibility6.2 mi. (10 km)
Clouds Scattered clouds 4,600 ft. (1,402 m)
Altimeter30.06 in.Hg (1018 mB)
Relative humidity48 %
Density altitude-39 ft. (-12 m)
Flight conditions Visual Meteorological Conditions
Raw dataEGKB 251250Z 36007KT 300V040 9999 SCT046 15/04 Q1018
An error has occurred. This application may no longer respond until reloaded. Reload 🗙